EDT,Max TemperatureF,Mean TemperatureF,Min TemperatureF,Max Dew PointF,MeanDew PointF,Min DewpointF,Max Humidity, Mean Humidity, Min Humidity, Max Sea Level PressureIn, Mean Sea Level PressureIn, Min Sea Level PressureIn, Max VisibilityMiles, Mean VisibilityMiles, Min VisibilityMiles, Max Wind SpeedMPH, Mean Wind SpeedMPH, Max Gust SpeedMPH,PrecipitationIn, CloudCover, Events, WindDirDegrees
2013-6-1,89,80,71,67,64,61,79,63,47,30.01,29.92,29.82,10,10,10,18,8,30,T,3,Rain,202
2013-6-2,78,73,67,68,65,63,100,79,58,29.94,29.89,29.84,10,9,2,14,5,20,0.34,6,Rain,208
2013-6-3,78,70,61,66,60,54,93,72,50,30.04,29.94,29.88,10,7,0,16,5,22,0.24,6,Fog-Rain,333
2013-6-4,78,66,54,55,51,48,87,63,38,30.13,30.08,30.04,10,10,9,10,4,16,0.00,0,,45
2013-6-5,88,72,55,67,60,49,90,66,42,30.06,29.97,29.89,10,8,2,22,3,28,0.44,5,Rain-Thunderstorm,144
2013-6-6,80,74,67,70,66,64,93,80,67,29.90,29.81,29.75,10,9,2,15,5,22,0.13,7,Rain,199
2013-6-7,72,66,60,65,61,56,93,80,66,29.88,29.79,29.75,10,8,5,10,5,15,0.00,6,,358
2013-6-8,81,70,58,61,58,56,97,71,45,30.05,29.96,29.87,10,5,2,8,1,9,0.00,3,,121
2013-6-9,85,73,60,67,63,57,97,72,46,30.10,30.04,29.97,10,7,1,18,3,26,0.71,5,Rain,135
2013-6-10,79,72,65,67,65,62,93,78,62,29.98,29.88,29.81,10,8,1,16,4,22,0.31,6,Rain,169
2013-6-11,85,74,63,66,64,62,100,76,51,29.98,29.93,29.88,10,9,5,14,6,22,0.00,3,,238
2013-6-12,91,80,68,73,69,64,87,70,52,29.95,29.88,29.79,10,10,10,14,5,18,T,1,,222
2013-6-13,83,73,63,73,65,56,84,69,53,29.87,29.73,29.62,10,9,1,25,8,37,0.51,5,Rain-Thunderstorm,267
2013-6-14,81,69,57,59,56,54,93,69,45,30.06,29.97,29.88,10,10,6,14,5,20,0.00,1,,358
2013-6-15,82,69,55,63,58,54,100,71,42,30.13,30.07,30.00,10,8,2,9,2,13,0.00,0,,140
2013-6-16,81,73,65,72,66,61,93,78,62,30.07,30.00,29.97,10,9,2,10,4,16,0.07,4,Rain,218
2013-6-17,88,77,65,69,66,64,100,78,55,30.00,29.96,29.88,10,7,2,12,2,16,0.00,4,,222
2013-6-18,79,72,65,66,64,62,93,77,60,29.96,29.91,29.85,10,7,2,14,3,20,0.32,6,Rain,263
2013-6-19,81,72,62,65,60,56,93,69,45,30.12,30.03,29.95,10,10,6,9,3,14,0.00,2,,359
2013-6-20,85,71,57,65,60,55,97,70,43,30.21,30.17,30.12,10,6,0,7,2,12,0.00,1,Fog,87
2013-6-21,88,75,61,67,63,59,97,69,40,30.23,30.18,30.13,10,8,3,24,2,25,0.00,1,,121
2013-6-22,88,77,66,69,67,64,93,72,50,30.21,30.14,30.06,10,9,7,9,3,14,0.00,1,,184
2013-6-23,90,78,65,69,65,59,100,69,38,30.17,30.11,30.06,10,10,10,12,3,14,0.00,0,,198
2013-6-24,90,78,66,68,67,65,93,70,46,30.17,30.10,30.05,10,10,10,10,3,16,0.00,1,,238
2013-6-25,91,80,68,72,69,66,90,70,50,30.09,30.02,29.94,10,10,10,12,6,16,0.00,1,,212
2013-6-26,87,78,68,71,69,64,90,76,61,29.96,29.90,29.83,10,9,2,25,5,40,0.24,3,Rain-Thunderstorm,207
2013-6-27,83,75,67,71,68,66,97,81,65,29.84,29.77,29.71,10,7,1,10,5,30,1.07,7,Rain-Thunderstorm,222
2013-6-28,87,76,64,70,65,57,93,68,43,29.71,29.63,29.56,10,10,10,16,8,23,0.05,2,Rain,245
2013-6-29,83,72,61,67,63,60,93,74,54,29.70,29.62,29.59,10,10,10,14,3,20,1.28,5,Rain-Thunderstorm,258
2013-6-30,82,72,62,68,65,61,100,79,58,29.80,29.73,29.66,10,8,1,10,2,15,0.05,4,Rain,82